sensor_id;sensor_type;location;lat;lon;timestamp;temperature;humidity
33645;DHT22;19986;48.190;16.366;2023-04-29T00:00:54;16.80;99.90
33645;DHT22;19986;48.190;16.366;2023-04-29T00:03:20;16.80;99.90
33645;DHT22;19986;48.190;16.366;2023-04-29T00:05:46;16.80;99.90
33645;DHT22;19986;48.190;16.366;2023-04-29T00:08:12;16.80;99.90
33645;DHT22;19986;48.190;16.366;2023-04-29T00:10:38;16.80;99.90
33645;DHT22;19986;48.190;16.366;2023-04-29T00:13:04;16.80;99.90
33645;DHT22;19986;48.190;16.366;2023-04-29T00:15:30;16.80;99.90
33645;DHT22;19986;48.190;16.366;2023-04-29T00:17:56;16.80;99.90
33645;DHT22;19986;48.190;16.366;2023-04-29T00:20:21;16.80;99.90
33645;DHT22;19986;48.190;16.366;2023-04-29T00:22:47;16.80;99.90
33645;DHT22;19986;48.190;16.366;2023-04-29T00:25:14;16.80;99.90
33645;DHT22;19986;48.190;16.366;2023-04-29T00:27:40;16.70;99.90
33645;DHT22;19986;48.190;16.366;2023-04-29T00:30:07;16.70;99.90
33645;DHT22;19986;48.190;16.366;2023-04-29T00:32:33;16.60;99.90
33645;DHT22;19986;48.190;16.366;2023-04-29T00:34:59;16.60;99.90
33645;DHT22;19986;48.190;16.366;2023-04-29T00:37:26;16.60;99.90
33645;DHT22;19986;48.190;16.366;2023-04-29T00:39:52;16.50;99.90
33645;DHT22;19986;48.190;16.366;2023-04-29T00:42:17;16.50;99.90
33645;DHT22;19986;48.190;16.366;2023-04-29T00:44:45;16.50;99.90
33645;DHT22;19986;48.190;16.366;2023-04-29T00:47:11;16.50;99.90
33645;DHT22;19986;48.190;16.366;2023-04-29T00:49:38;16.50;99.90
33645;DHT22;19986;48.190;16.366;2023-04-29T00:52:04;16.50;99.90
33645;DHT22;19986;48.190;16.366;2023-04-29T00:54:34;16.40;99.90
33645;DHT22;19986;48.190;16.366;2023-04-29T00:57:01;16.30;99.90
33645;DHT22;19986;48.190;16.366;2023-04-29T00:59:28;16.30;99.90
33645;DHT22;19986;48.190;16.366;2023-04-29T01:01:59;16.20;99.90
33645;DHT22;19986;48.190;16.366;2023-04-29T01:04:25;16.20;99.90
33645;DHT22;19986;48.190;16.366;2023-04-29T01:07:00;16.10;99.90
33645;DHT22;19986;48.190;16.366;2023-04-29T01:13:06;16.10;99.90
33645;DHT22;19986;48.190;16.366;2023-04-29T01:15:48;16.00;99.90
33645;DHT22;19986;48.190;16.366;2023-04-29T01:18:28;16.00;99.90
33645;DHT22;19986;48.190;16.366;2023-04-29T01:20:57;15.90;99.90
33645;DHT22;19986;48.190;16.366;2023-04-29T01:23:29;15.90;99.90
33645;DHT22;19986;48.190;16.366;2023-04-29T01:25:56;15.80;99.90
33645;DHT22;19986;48.190;16.366;2023-04-29T01:31:10;15.80;99.90
33645;DHT22;19986;48.190;16.366;2023-04-29T01:33:47;15.70;99.90
33645;DHT22;19986;48.190;16.366;2023-04-29T01:41:58;15.50;99.90
33645;DHT22;19986;48.190;16.366;2023-04-29T01:44:28;15.50;99.90
33645;DHT22;19986;48.190;16.366;2023-04-29T01:46:55;15.40;99.90
33645;DHT22;19986;48.190;16.366;2023-04-29T01:49:26;15.50;99.90
33645;DHT22;19986;48.190;16.366;2023-04-29T01:51:53;15.60;99.90
33645;DHT22;19986;48.190;16.366;2023-04-29T01:54:19;15.50;99.90
33645;DHT22;19986;48.190;16.366;2023-04-29T01:56:47;15.50;99.90
33645;DHT22;19986;48.190;16.366;2023-04-29T01:59:14;15.50;99.90
33645;DHT22;19986;48.190;16.366;2023-04-29T02:01:40;15.50;99.90
33645;DHT22;19986;48.190;16.366;2023-04-29T02:04:06;15.50;99.90
33645;DHT22;19986;48.190;16.366;2023-04-29T02:06:33;15.60;99.90
33645;DHT22;19986;48.190;16.366;2023-04-29T02:08:59;15.60;99.90
33645;DHT22;19986;48.190;16.366;2023-04-29T02:11:26;15.50;99.90
33645;DHT22;19986;48.190;16.366;2023-04-29T02:13:52;15.50;99.90
33645;DHT22;19986;48.190;16.366;2023-04-29T02:16:20;15.50;99.90
33645;DHT22;19986;48.190;16.366;2023-04-29T02:18:46;15.60;99.90
33645;DHT22;19986;48.190;16.366;2023-04-29T02:21:13;15.50;99.90
33645;DHT22;19986;48.190;16.366;2023-04-29T02:23:44;15.50;99.90
33645;DHT22;19986;48.190;16.366;2023-04-29T02:26:10;15.50;99.90
33645;DHT22;19986;48.190;16.366;2023-04-29T02:28:37;15.60;99.90
33645;DHT22;19986;48.190;16.366;2023-04-29T02:31:04;15.60;99.90
33645;DHT22;19986;48.190;16.366;2023-04-29T02:33:30;15.60;99.90
33645;DHT22;19986;48.190;16.366;2023-04-29T02:35:56;15.60;99.90
33645;DHT22;19986;48.190;16.366;2023-04-29T02:38:24;15.60;99.90
33645;DHT22;19986;48.190;16.366;2023-04-29T02:40:50;15.60;99.90
33645;DHT22;19986;48.190;16.366;2023-04-29T02:43:16;15.60;99.90
33645;DHT22;19986;48.190;16.366;2023-04-29T02:45:42;15.70;99.90
33645;DHT22;19986;48.190;16.366;2023-04-29T02:48:09;15.70;99.90
33645;DHT22;19986;48.190;16.366;2023-04-29T02:50:42;15.70;99.90
33645;DHT22;19986;48.190;16.366;2023-04-29T02:53:08;15.70;99.90
33645;DHT22;19986;48.190;16.366;2023-04-29T02:55:35;15.80;99.90
33645;DHT22;19986;48.190;16.366;2023-04-29T02:58:01;15.80;99.90
33645;DHT22;19986;48.190;16.366;2023-04-29T03:00:29;15.80;99.90
33645;DHT22;19986;48.190;16.366;2023-04-29T03:02:55;15.70;99.90
33645;DHT22;19986;48.190;16.366;2023-04-29T03:05:21;15.70;99.90
33645;DHT22;19986;48.190;16.366;2023-04-29T03:07:47;15.70;99.90
33645;DHT22;19986;48.190;16.366;2023-04-29T03:10:13;15.70;99.90
33645;DHT22;19986;48.190;16.366;2023-04-29T03:12:39;15.80;99.90
33645;DHT22;19986;48.190;16.366;2023-04-29T03:15:06;15.80;99.90
33645;DHT22;19986;48.190;16.366;2023-04-29T03:17:33;15.80;99.90
33645;DHT22;19986;48.190;16.366;2023-04-29T03:20:00;15.90;99.90
33645;DHT22;19986;48.190;16.366;2023-04-29T03:22:26;15.90;99.90
33645;DHT22;19986;48.190;16.366;2023-04-29T03:24:52;15.90;99.90
33645;DHT22;19986;48.190;16.366;2023-04-29T03:27:18;15.90;99.90
33645;DHT22;19986;48.190;16.366;2023-04-29T03:29:45;15.90;99.90
33645;DHT22;19986;48.190;16.366;2023-04-29T03:32:11;15.90;99.90
33645;DHT22;19986;48.190;16.366;2023-04-29T03:34:36;15.80;99.90
33645;DHT22;19986;48.190;16.366;2023-04-29T03:37:02;15.80;99.90
33645;DHT22;19986;48.190;16.366;2023-04-29T03:39:28;15.60;99.90
33645;DHT22;19986;48.190;16.366;2023-04-29T03:41:59;15.60;99.90
33645;DHT22;19986;48.190;16.366;2023-04-29T03:44:26;15.50;99.90
33645;DHT22;19986;48.190;16.366;2023-04-29T03:46:53;15.50;99.90
33645;DHT22;19986;48.190;16.366;2023-04-29T03:49:19;15.50;99.90
33645;DHT22;19986;48.190;16.366;2023-04-29T03:51:46;15.50;99.90
33645;DHT22;19986;48.190;16.366;2023-04-29T03:54:12;15.50;99.90
33645;DHT22;19986;48.190;16.366;2023-04-29T03:56:38;15.40;99.90
33645;DHT22;19986;48.190;16.366;2023-04-29T03:59:04;15.40;99.90
33645;DHT22;19986;48.190;16.366;2023-04-29T04:01:30;15.40;99.90
33645;DHT22;19986;48.190;16.366;2023-04-29T04:03:56;15.40;99.90
33645;DHT22;19986;48.190;16.366;2023-04-29T04:06:22;15.40;99.90
33645;DHT22;19986;48.190;16.366;2023-04-29T04:08:48;15.40;99.90
33645;DHT22;19986;48.190;16.366;2023-04-29T04:11:13;15.40;99.90
33645;DHT22;19986;48.190;16.366;2023-04-29T04:13:43;15.50;99.90
33645;DHT22;19986;48.190;16.366;2023-04-29T04:16:09;15.60;99.90
33645;DHT22;19986;48.190;16.366;2023-04-29T04:18:38;15.60;99.90
33645;DHT22;19986;48.190;16.366;2023-04-29T04:21:08;15.60;99.90
33645;DHT22;19986;48.190;16.366;2023-04-29T04:23:35;15.60;99.90
33645;DHT22;19986;48.190;16.366;2023-04-29T04:26:01;15.70;99.90
33645;DHT22;19986;48.190;16.366;2023-04-29T04:28:27;15.70;99.90
33645;DHT22;19986;48.190;16.366;2023-04-29T04:30:53;15.50;99.90
33645;DHT22;19986;48.190;16.366;2023-04-29T04:33:18;15.60;99.90
33645;DHT22;19986;48.190;16.366;2023-04-29T04:35:44;15.50;99.90
33645;DHT22;19986;48.190;16.366;2023-04-29T04:38:10;15.50;99.90
33645;DHT22;19986;48.190;16.366;2023-04-29T04:40:40;15.50;99.90
33645;DHT22;19986;48.190;16.366;2023-04-29T04:43:06;15.50;99.90
33645;DHT22;19986;48.190;16.366;2023-04-29T04:45:32;15.60;99.90
33645;DHT22;19986;48.190;16.366;2023-04-29T04:47:58;15.60;99.90
33645;DHT22;19986;48.190;16.366;2023-04-29T04:50:27;15.70;99.90
33645;DHT22;19986;48.190;16.366;2023-04-29T04:52:57;15.80;99.90
33645;DHT22;19986;48.190;16.366;2023-04-29T04:55:23;15.90;99.90
33645;DHT22;19986;48.190;16.366;2023-04-29T04:57:49;16.00;99.90
33645;DHT22;19986;48.190;16.366;2023-04-29T05:00:15;16.00;99.90
33645;DHT22;19986;48.190;16.366;2023-04-29T05:02:41;16.00;99.90
33645;DHT22;19986;48.190;16.366;2023-04-29T05:05:07;15.90;99.90
33645;DHT22;19986;48.190;16.366;2023-04-29T05:07:33;15.90;99.90
33645;DHT22;19986;48.190;16.366;2023-04-29T05:10:02;15.90;99.90
33645;DHT22;19986;48.190;16.366;2023-04-29T05:12:28;15.90;99.90
33645;DHT22;19986;48.190;16.366;2023-04-29T05:15:00;15.90;99.90
33645;DHT22;19986;48.190;16.366;2023-04-29T05:17:26;15.90;99.90
33645;DHT22;19986;48.190;16.366;2023-04-29T05:19:52;16.00;99.90
33645;DHT22;19986;48.190;16.366;2023-04-29T05:22:17;16.10;99.90
33645;DHT22;19986;48.190;16.366;2023-04-29T05:24:43;16.10;99.90
33645;DHT22;19986;48.190;16.366;2023-04-29T05:27:09;16.20;99.90
33645;DHT22;19986;48.190;16.366;2023-04-29T05:29:35;16.30;99.90
33645;DHT22;19986;48.190;16.366;2023-04-29T05:32:02;16.30;99.90
33645;DHT22;19986;48.190;16.366;2023-04-29T05:34:28;16.40;99.90
33645;DHT22;19986;48.190;16.366;2023-04-29T05:36:53;16.50;99.90
33645;DHT22;19986;48.190;16.366;2023-04-29T05:39:19;16.70;99.90
33645;DHT22;19986;48.190;16.366;2023-04-29T05:41:45;16.70;99.90
33645;DHT22;19986;48.190;16.366;2023-04-29T05:44:11;16.80;99.90
33645;DHT22;19986;48.190;16.366;2023-04-29T05:46:37;16.90;99.90
33645;DHT22;19986;48.190;16.366;2023-04-29T05:49:03;16.90;99.90
33645;DHT22;19986;48.190;16.366;2023-04-29T05:51:28;16.90;99.90
33645;DHT22;19986;48.190;16.366;2023-04-29T05:53:54;17.00;99.90
33645;DHT22;19986;48.190;16.366;2023-04-29T05:56:21;17.10;99.90
33645;DHT22;19986;48.190;16.366;2023-04-29T05:58:47;17.10;99.90
33645;DHT22;19986;48.190;16.366;2023-04-29T06:01:12;17.20;99.90
33645;DHT22;19986;48.190;16.366;2023-04-29T06:03:38;17.30;99.90
33645;DHT22;19986;48.190;16.366;2023-04-29T06:06:04;17.30;99.90
33645;DHT22;19986;48.190;16.366;2023-04-29T06:08:30;17.30;99.90
33645;DHT22;19986;48.190;16.366;2023-04-29T06:10:56;17.20;99.90
33645;DHT22;19986;48.190;16.366;2023-04-29T06:13:22;17.10;99.90
33645;DHT22;19986;48.190;16.366;2023-04-29T06:15:48;17.10;99.90
33645;DHT22;19986;48.190;16.366;2023-04-29T06:18:14;17.00;99.90
33645;DHT22;19986;48.190;16.366;2023-04-29T06:20:39;16.90;99.90
33645;DHT22;19986;48.190;16.366;2023-04-29T06:23:05;16.90;99.90
33645;DHT22;19986;48.190;16.366;2023-04-29T06:25:31;16.90;99.90
33645;DHT22;19986;48.190;16.366;2023-04-29T06:27:57;17.00;99.90
33645;DHT22;19986;48.190;16.366;2023-04-29T06:30:23;17.00;99.90
33645;DHT22;19986;48.190;16.366;2023-04-29T06:32:49;17.20;99.90
33645;DHT22;19986;48.190;16.366;2023-04-29T06:35:15;17.30;99.90
33645;DHT22;19986;48.190;16.366;2023-04-29T06:37:40;17.50;99.90
33645;DHT22;19986;48.190;16.366;2023-04-29T06:40:07;17.70;99.90
33645;DHT22;19986;48.190;16.366;2023-04-29T06:42:33;17.80;99.90
33645;DHT22;19986;48.190;16.366;2023-04-29T06:44:59;17.90;99.90
33645;DHT22;19986;48.190;16.366;2023-04-29T06:47:25;18.00;99.90
33645;DHT22;19986;48.190;16.366;2023-04-29T06:49:50;18.00;99.90
33645;DHT22;19986;48.190;16.366;2023-04-29T06:52:17;18.00;99.90
33645;DHT22;19986;48.190;16.366;2023-04-29T06:54:43;18.00;99.90
33645;DHT22;19986;48.190;16.366;2023-04-29T06:57:10;18.00;99.90
33645;DHT22;19986;48.190;16.366;2023-04-29T06:59:35;18.20;99.90
33645;DHT22;19986;48.190;16.366;2023-04-29T07:02:01;18.50;99.90
33645;DHT22;19986;48.190;16.366;2023-04-29T07:04:27;18.30;99.90
33645;DHT22;19986;48.190;16.366;2023-04-29T07:06:53;18.30;99.90
33645;DHT22;19986;48.190;16.366;2023-04-29T07:09:20;18.30;99.90
33645;DHT22;19986;48.190;16.366;2023-04-29T07:11:48;18.50;99.90
33645;DHT22;19986;48.190;16.366;2023-04-29T07:14:14;18.70;99.90
33645;DHT22;19986;48.190;16.366;2023-04-29T07:16:40;18.90;99.90
33645;DHT22;19986;48.190;16.366;2023-04-29T07:19:06;19.10;99.90
33645;DHT22;19986;48.190;16.366;2023-04-29T07:21:32;19.30;99.90
33645;DHT22;19986;48.190;16.366;2023-04-29T07:23:58;19.30;99.90
33645;DHT22;19986;48.190;16.366;2023-04-29T07:26:27;19.30;99.90
33645;DHT22;19986;48.190;16.366;2023-04-29T07:28:52;19.30;99.90
33645;DHT22;19986;48.190;16.366;2023-04-29T07:31:19;19.20;99.90
33645;DHT22;19986;48.190;16.366;2023-04-29T07:33:46;19.20;99.90
33645;DHT22;19986;48.190;16.366;2023-04-29T07:36:12;19.20;99.90
33645;DHT22;19986;48.190;16.366;2023-04-29T07:38:38;19.00;99.90
33645;DHT22;19986;48.190;16.366;2023-04-29T07:41:04;19.10;99.90
33645;DHT22;19986;48.190;16.366;2023-04-29T07:43:30;19.20;99.90
33645;DHT22;19986;48.190;16.366;2023-04-29T07:45:56;19.50;99.90
33645;DHT22;19986;48.190;16.366;2023-04-29T07:48:22;19.70;99.90
33645;DHT22;19986;48.190;16.366;2023-04-29T07:50:48;19.70;99.90
33645;DHT22;19986;48.190;16.366;2023-04-29T07:53:14;19.80;99.90
33645;DHT22;19986;48.190;16.366;2023-04-29T07:55:40;20.00;99.90
33645;DHT22;19986;48.190;16.366;2023-04-29T07:58:06;20.10;99.90
33645;DHT22;19986;48.190;16.366;2023-04-29T08:00:32;20.20;99.90
33645;DHT22;19986;48.190;16.366;2023-04-29T08:02:58;20.40;99.90
33645;DHT22;19986;48.190;16.366;2023-04-29T08:05:24;20.20;99.90
33645;DHT22;19986;48.190;16.366;2023-04-29T08:07:50;20.10;99.90
33645;DHT22;19986;48.190;16.366;2023-04-29T08:10:17;19.90;99.90
33645;DHT22;19986;48.190;16.366;2023-04-29T08:12:46;19.70;99.90
33645;DHT22;19986;48.190;16.366;2023-04-29T08:15:12;19.80;99.90
33645;DHT22;19986;48.190;16.366;2023-04-29T08:17:38;19.80;99.90
33645;DHT22;19986;48.190;16.366;2023-04-29T08:20:05;19.90;99.90
33645;DHT22;19986;48.190;16.366;2023-04-29T08:22:32;20.10;99.90
33645;DHT22;19986;48.190;16.366;2023-04-29T08:24:58;20.10;99.90
33645;DHT22;19986;48.190;16.366;2023-04-29T08:27:24;20.10;99.90
33645;DHT22;19986;48.190;16.366;2023-04-29T08:29:51;20.30;99.90
33645;DHT22;19986;48.190;16.366;2023-04-29T08:32:17;20.50;99.90
33645;DHT22;19986;48.190;16.366;2023-04-29T08:34:43;20.80;99.90
33645;DHT22;19986;48.190;16.366;2023-04-29T08:37:10;20.80;99.90
33645;DHT22;19986;48.190;16.366;2023-04-29T08:39:36;20.90;99.90
33645;DHT22;19986;48.190;16.366;2023-04-29T08:42:08;21.20;99.90
33645;DHT22;19986;48.190;16.366;2023-04-29T08:44:35;21.50;99.90
33645;DHT22;19986;48.190;16.366;2023-04-29T08:47:02;21.60;99.90
33645;DHT22;19986;48.190;16.366;2023-04-29T08:49:28;21.70;99.90
33645;DHT22;19986;48.190;16.366;2023-04-29T08:51:54;21.90;99.90
33645;DHT22;19986;48.190;16.366;2023-04-29T08:54:20;21.60;99.90
33645;DHT22;19986;48.190;16.366;2023-04-29T08:56:46;21.50;99.90
33645;DHT22;19986;48.190;16.366;2023-04-29T08:59:16;21.40;99.90
33645;DHT22;19986;48.190;16.366;2023-04-29T09:01:43;21.20;99.90
33645;DHT22;19986;48.190;16.366;2023-04-29T09:07:14;20.80;99.90
33645;DHT22;19986;48.190;16.366;2023-04-29T09:09:41;20.60;99.90
33645;DHT22;19986;48.190;16.366;2023-04-29T09:12:07;20.30;99.90
33645;DHT22;19986;48.190;16.366;2023-04-29T09:14:35;20.30;99.90
33645;DHT22;19986;48.190;16.366;2023-04-29T09:17:01;20.10;99.90
33645;DHT22;19986;48.190;16.366;2023-04-29T09:19:33;20.00;99.90
33645;DHT22;19986;48.190;16.366;2023-04-29T09:22:00;19.80;99.90
33645;DHT22;19986;48.190;16.366;2023-04-29T09:24:27;19.70;99.90
33645;DHT22;19986;48.190;16.366;2023-04-29T09:26:53;19.80;99.90
33645;DHT22;19986;48.190;16.366;2023-04-29T09:29:20;19.90;99.90
33645;DHT22;19986;48.190;16.366;2023-04-29T09:31:46;20.00;99.90
33645;DHT22;19986;48.190;16.366;2023-04-29T09:34:13;20.10;99.90
33645;DHT22;19986;48.190;16.366;2023-04-29T09:36:49;20.20;99.90
33645;DHT22;19986;48.190;16.366;2023-04-29T09:44:33;20.60;99.90
33645;DHT22;19986;48.190;16.366;2023-04-29T09:47:06;20.80;99.90
33645;DHT22;19986;48.190;16.366;2023-04-29T09:49:36;21.10;99.90
33645;DHT22;19986;48.190;16.366;2023-04-29T09:52:07;21.40;99.90
33645;DHT22;19986;48.190;16.366;2023-04-29T09:54:36;21.70;99.90
33645;DHT22;19986;48.190;16.366;2023-04-29T09:57:03;22.80;99.90
33645;DHT22;19986;48.190;16.366;2023-04-29T09:59:31;25.10;99.90
33645;DHT22;19986;48.190;16.366;2023-04-29T10:01:59;27.40;99.90
33645;DHT22;19986;48.190;16.366;2023-04-29T10:04:26;28.30;99.90
33645;DHT22;19986;48.190;16.366;2023-04-29T10:06:54;28.40;99.90
33645;DHT22;19986;48.190;16.366;2023-04-29T10:09:21;27.70;99.90
33645;DHT22;19986;48.190;16.366;2023-04-29T10:11:50;26.90;99.90
33645;DHT22;19986;48.190;16.366;2023-04-29T10:14:18;26.10;99.90
33645;DHT22;19986;48.190;16.366;2023-04-29T10:19:14;24.70;99.90
33645;DHT22;19986;48.190;16.366;2023-04-29T10:21:41;25.10;99.90
33645;DHT22;19986;48.190;16.366;2023-04-29T10:24:09;25.20;99.90
33645;DHT22;19986;48.190;16.366;2023-04-29T10:26:39;25.10;99.90
33645;DHT22;19986;48.190;16.366;2023-04-29T10:29:07;25.70;99.90
33645;DHT22;19986;48.190;16.366;2023-04-29T10:31:36;25.20;99.90
33645;DHT22;19986;48.190;16.366;2023-04-29T10:34:03;24.40;99.90
33645;DHT22;19986;48.190;16.366;2023-04-29T10:36:29;23.60;99.90
33645;DHT22;19986;48.190;16.366;2023-04-29T10:38:59;23.20;99.90
33645;DHT22;19986;48.190;16.366;2023-04-29T10:41:27;22.70;99.90
33645;DHT22;19986;48.190;16.366;2023-04-29T10:43:54;22.70;99.90
33645;DHT22;19986;48.190;16.366;2023-04-29T10:46:25;22.70;99.90
33645;DHT22;19986;48.190;16.366;2023-04-29T10:49:01;23.10;99.90
33645;DHT22;19986;48.190;16.366;2023-04-29T10:51:33;23.00;99.90
33645;DHT22;19986;48.190;16.366;2023-04-29T10:54:12;22.70;99.90
33645;DHT22;19986;48.190;16.366;2023-04-29T10:56:47;22.30;99.90
33645;DHT22;19986;48.190;16.366;2023-04-29T11:01:53;21.30;99.90
33645;DHT22;19986;48.190;16.366;2023-04-29T11:04:20;21.00;99.90
33645;DHT22;19986;48.190;16.366;2023-04-29T11:06:54;20.80;99.90
33645;DHT22;19986;48.190;16.366;2023-04-29T11:14:14;20.70;99.90
33645;DHT22;19986;48.190;16.366;2023-04-29T11:16:48;20.90;99.90
33645;DHT22;19986;48.190;16.366;2023-04-29T11:19:16;21.20;99.90
33645;DHT22;19986;48.190;16.366;2023-04-29T11:21:44;21.60;99.90
33645;DHT22;19986;48.190;16.366;2023-04-29T11:24:10;21.90;99.90
33645;DHT22;19986;48.190;16.366;2023-04-29T11:26:37;22.10;99.90
33645;DHT22;19986;48.190;16.366;2023-04-29T11:29:07;22.00;99.90
33645;DHT22;19986;48.190;16.366;2023-04-29T11:31:35;22.00;99.90
33645;DHT22;19986;48.190;16.366;2023-04-29T11:34:03;22.00;99.90
33645;DHT22;19986;48.190;16.366;2023-04-29T11:36:33;21.70;99.90
33645;DHT22;19986;48.190;16.366;2023-04-29T11:39:00;21.60;99.90
33645;DHT22;19986;48.190;16.366;2023-04-29T11:41:26;21.50;99.90
33645;DHT22;19986;48.190;16.366;2023-04-29T11:43:56;21.80;99.90
33645;DHT22;19986;48.190;16.366;2023-04-29T11:46:23;22.30;99.90
33645;DHT22;19986;48.190;16.366;2023-04-29T11:48:49;22.50;99.90
33645;DHT22;19986;48.190;16.366;2023-04-29T11:51:16;22.60;99.90
33645;DHT22;19986;48.190;16.366;2023-04-29T11:53:43;22.80;99.90
33645;DHT22;19986;48.190;16.366;2023-04-29T11:56:10;23.00;99.90
33645;DHT22;19986;48.190;16.366;2023-04-29T11:58:36;23.00;99.90
33645;DHT22;19986;48.190;16.366;2023-04-29T12:01:03;22.70;99.90
33645;DHT22;19986;48.190;16.366;2023-04-29T12:03:31;22.50;99.90
33645;DHT22;19986;48.190;16.366;2023-04-29T12:05:57;22.30;99.90
33645;DHT22;19986;48.190;16.366;2023-04-29T12:08:24;22.00;99.90
33645;DHT22;19986;48.190;16.366;2023-04-29T12:10:51;21.80;99.90
33645;DHT22;19986;48.190;16.366;2023-04-29T12:13:19;21.60;99.90
33645;DHT22;19986;48.190;16.366;2023-04-29T12:15:46;21.40;99.90
33645;DHT22;19986;48.190;16.366;2023-04-29T12:18:13;21.20;99.90
33645;DHT22;19986;48.190;16.366;2023-04-29T12:20:40;21.00;99.90
33645;DHT22;19986;48.190;16.366;2023-04-29T12:23:12;20.80;99.90
33645;DHT22;19986;48.190;16.366;2023-04-29T12:25:39;20.70;99.90
33645;DHT22;19986;48.190;16.366;2023-04-29T12:28:14;20.70;99.90
33645;DHT22;19986;48.190;16.366;2023-04-29T12:30:40;20.60;99.90
33645;DHT22;19986;48.190;16.366;2023-04-29T12:33:08;20.60;99.90
33645;DHT22;19986;48.190;16.366;2023-04-29T12:35:35;20.60;99.90
33645;DHT22;19986;48.190;16.366;2023-04-29T12:38:01;20.50;99.90
33645;DHT22;19986;48.190;16.366;2023-04-29T12:40:28;20.50;99.90
33645;DHT22;19986;48.190;16.366;2023-04-29T12:42:53;20.30;99.90
33645;DHT22;19986;48.190;16.366;2023-04-29T12:45:31;20.20;99.90
33645;DHT22;19986;48.190;16.366;2023-04-29T12:47:58;20.00;99.90
33645;DHT22;19986;48.190;16.366;2023-04-29T12:50:35;19.90;99.90
33645;DHT22;19986;48.190;16.366;2023-04-29T12:53:06;19.80;99.90
33645;DHT22;19986;48.190;16.366;2023-04-29T12:55:34;19.60;99.90
33645;DHT22;19986;48.190;16.366;2023-04-29T12:58:01;19.50;99.90
33645;DHT22;19986;48.190;16.366;2023-04-29T13:00:27;19.50;99.90
33645;DHT22;19986;48.190;16.366;2023-04-29T13:02:53;19.50;99.90
33645;DHT22;19986;48.190;16.366;2023-04-29T13:05:19;19.40;99.90
33645;DHT22;19986;48.190;16.366;2023-04-29T13:07:47;19.30;99.90
33645;DHT22;19986;48.190;16.366;2023-04-29T13:10:13;19.50;99.90
33645;DHT22;19986;48.190;16.366;2023-04-29T13:12:39;19.70;99.90
33645;DHT22;19986;48.190;16.366;2023-04-29T13:15:06;19.90;99.90
33645;DHT22;19986;48.190;16.366;2023-04-29T13:17:34;20.20;99.90
33645;DHT22;19986;48.190;16.366;2023-04-29T13:20:03;20.40;99.90
33645;DHT22;19986;48.190;16.366;2023-04-29T13:22:29;20.70;99.90
33645;DHT22;19986;48.190;16.366;2023-04-29T13:24:55;20.90;99.90
33645;DHT22;19986;48.190;16.366;2023-04-29T13:27:21;20.90;99.90
33645;DHT22;19986;48.190;16.366;2023-04-29T13:29:47;20.70;99.90
33645;DHT22;19986;48.190;16.366;2023-04-29T13:32:13;20.60;99.90
33645;DHT22;19986;48.190;16.366;2023-04-29T13:34:40;20.60;99.90
33645;DHT22;19986;48.190;16.366;2023-04-29T13:37:10;20.70;99.90
33645;DHT22;19986;48.190;16.366;2023-04-29T13:39:36;20.90;99.90
33645;DHT22;19986;48.190;16.366;2023-04-29T13:42:02;21.10;99.90
33645;DHT22;19986;48.190;16.366;2023-04-29T13:44:28;21.30;99.90
33645;DHT22;19986;48.190;16.366;2023-04-29T13:46:55;21.30;99.90
33645;DHT22;19986;48.190;16.366;2023-04-29T13:49:21;21.30;99.90
33645;DHT22;19986;48.190;16.366;2023-04-29T13:51:47;21.40;99.90
33645;DHT22;19986;48.190;16.366;2023-04-29T13:54:13;21.50;99.90
33645;DHT22;19986;48.190;16.366;2023-04-29T13:56:39;21.50;99.90
33645;DHT22;19986;48.190;16.366;2023-04-29T13:59:05;21.70;99.90
33645;DHT22;19986;48.190;16.366;2023-04-29T14:01:31;21.70;99.90
33645;DHT22;19986;48.190;16.366;2023-04-29T14:03:57;21.80;99.90
33645;DHT22;19986;48.190;16.366;2023-04-29T14:06:22;21.80;99.90
33645;DHT22;19986;48.190;16.366;2023-04-29T14:08:48;21.90;99.90
33645;DHT22;19986;48.190;16.366;2023-04-29T14:11:14;21.80;99.90
33645;DHT22;19986;48.190;16.366;2023-04-29T14:13:40;21.60;99.90
33645;DHT22;19986;48.190;16.366;2023-04-29T14:16:06;21.50;99.90
33645;DHT22;19986;48.190;16.366;2023-04-29T14:18:33;21.30;99.90
33645;DHT22;19986;48.190;16.366;2023-04-29T14:21:00;21.20;99.90
33645;DHT22;19986;48.190;16.366;2023-04-29T14:23:26;21.10;99.90
33645;DHT22;19986;48.190;16.366;2023-04-29T14:25:51;21.00;99.90
33645;DHT22;19986;48.190;16.366;2023-04-29T14:28:17;20.90;99.90
33645;DHT22;19986;48.190;16.366;2023-04-29T14:30:43;20.90;99.90
33645;DHT22;19986;48.190;16.366;2023-04-29T14:33:09;20.80;99.90
33645;DHT22;19986;48.190;16.366;2023-04-29T14:35:35;20.70;99.90
33645;DHT22;19986;48.190;16.366;2023-04-29T14:38:00;20.70;99.90
33645;DHT22;19986;48.190;16.366;2023-04-29T14:40:26;20.50;99.90
33645;DHT22;19986;48.190;16.366;2023-04-29T14:42:52;20.40;99.90
33645;DHT22;19986;48.190;16.366;2023-04-29T14:45:18;20.50;99.90
33645;DHT22;19986;48.190;16.366;2023-04-29T14:47:44;20.80;99.90
33645;DHT22;19986;48.190;16.366;2023-04-29T14:50:11;20.90;99.90
33645;DHT22;19986;48.190;16.366;2023-04-29T14:52:37;21.00;99.90
33645;DHT22;19986;48.190;16.366;2023-04-29T14:55:03;20.80;99.90
33645;DHT22;19986;48.190;16.366;2023-04-29T14:57:29;20.60;99.90
33645;DHT22;19986;48.190;16.366;2023-04-29T14:59:55;20.90;99.90
33645;DHT22;19986;48.190;16.366;2023-04-29T15:02:22;21.10;99.90
33645;DHT22;19986;48.190;16.366;2023-04-29T15:04:48;21.10;99.90
33645;DHT22;19986;48.190;16.366;2023-04-29T15:07:14;21.10;99.90
33645;DHT22;19986;48.190;16.366;2023-04-29T15:09:41;21.00;99.90
33645;DHT22;19986;48.190;16.366;2023-04-29T15:12:07;21.10;99.90
33645;DHT22;19986;48.190;16.366;2023-04-29T15:14:34;21.10;99.90
33645;DHT22;19986;48.190;16.366;2023-04-29T15:17:00;21.10;99.90
33645;DHT22;19986;48.190;16.366;2023-04-29T15:19:26;21.10;99.90
33645;DHT22;19986;48.190;16.366;2023-04-29T15:21:52;21.20;99.90
33645;DHT22;19986;48.190;16.366;2023-04-29T15:24:18;21.30;99.90
33645;DHT22;19986;48.190;16.366;2023-04-29T15:26:44;21.30;99.90
33645;DHT22;19986;48.190;16.366;2023-04-29T15:29:11;21.20;99.90
33645;DHT22;19986;48.190;16.366;2023-04-29T15:31:37;20.90;99.90
33645;DHT22;19986;48.190;16.366;2023-04-29T15:34:05;20.30;99.90
33645;DHT22;19986;48.190;16.366;2023-04-29T15:36:32;19.70;99.90
33645;DHT22;19986;48.190;16.366;2023-04-29T15:38:58;19.30;99.90
33645;DHT22;19986;48.190;16.366;2023-04-29T15:41:25;18.90;99.90
33645;DHT22;19986;48.190;16.366;2023-04-29T15:43:51;18.60;99.90